createdAt,value
2019-04-11T04:00:59.365Z,0.00
2019-04-11T04:01:57.524Z,0.00
2019-04-11T04:02:57.562Z,0.00
2019-04-11T04:03:56.116Z,0.00
2019-04-11T04:04:57.077Z,4.00
2019-04-11T04:05:57.365Z,4.00
2019-04-11T04:06:57.818Z,0.00
2019-04-11T04:07:58.232Z,4.00
2019-04-11T04:08:58.489Z,0.00
2019-04-11T04:09:58.447Z,4.00
2019-04-11T04:10:58.347Z,4.00
2019-04-11T04:11:59.019Z,4.00
2019-04-11T04:12:58.368Z,4.00
2019-04-11T04:13:59.424Z,8.00
2019-04-11T04:14:59.183Z,12.00
2019-04-11T04:16:08.173Z,12.00
2019-04-11T04:17:01.573Z,12.00
2019-04-11T04:17:59.721Z,16.00
2019-04-11T04:19:00.890Z,20.00
2019-04-11T04:19:59.589Z,24.00
2019-04-11T04:20:59.693Z,28.00
2019-04-11T04:21:59.555Z,32.00
2019-04-11T04:23:00.551Z,36.00
2019-04-11T04:24:02.184Z,48.00
2019-04-11T04:25:01.066Z,56.00
2019-04-11T04:26:01.154Z,60.00
2019-04-11T04:27:01.734Z,72.00
2019-04-11T04:28:00.438Z,84.00
2019-04-11T04:29:01.924Z,96.00
2019-04-11T04:30:04.147Z,108.00
2019-04-11T04:31:01.990Z,124.00
2019-04-11T04:32:02.608Z,140.00
2019-04-11T04:33:02.776Z,156.00
2019-04-11T04:34:01.965Z,176.00
2019-04-11T04:35:01.790Z,196.00
2019-04-11T04:36:02.417Z,220.00
2019-04-11T04:37:03.490Z,244.00
2019-04-11T04:38:03.020Z,268.00
2019-04-11T04:39:03.627Z,296.00
2019-04-11T04:40:21.728Z,324.00
2019-04-11T04:41:16.790Z,352.00
2019-04-11T04:42:08.874Z,388.00
2019-04-11T04:43:05.144Z,416.00
2019-04-11T04:44:04.504Z,452.00
2019-04-11T04:45:04.827Z,488.00
2019-04-11T04:46:17.251Z,524.00
2019-04-11T04:47:15.665Z,560.00
2019-04-11T04:48:08.464Z,600.00
2019-04-11T04:49:04.753Z,640.00
2019-04-11T04:50:04.668Z,680.00
2019-04-11T04:51:08.972Z,724.00
2019-04-11T04:52:05.929Z,764.00
2019-04-11T04:53:05.176Z,808.00
2019-04-11T04:54:05.896Z,856.00
2019-04-11T04:55:06.171Z,900.00
2019-04-11T04:56:06.594Z,948.00
2019-04-11T04:57:05.147Z,988.00
2019-04-11T04:58:07.114Z,1036.00
2019-04-11T04:59:07.046Z,1080.00
2019-04-11T05:00:07.107Z,1124.00
2019-04-11T05:01:06.877Z,1172.00
2019-04-11T05:02:06.684Z,1220.00
2019-04-11T05:03:07.739Z,1264.00
2019-04-11T05:04:06.837Z,1316.00
2019-04-11T05:05:06.495Z,1360.00
2019-04-11T05:06:07.727Z,1408.00
2019-04-11T05:07:07.339Z,1452.00
2019-04-11T05:08:08.389Z,1500.00
2019-04-11T05:09:08.521Z,1544.00
2019-04-11T05:10:08.866Z,1592.00
2019-04-11T05:11:07.712Z,1640.00
2019-04-11T05:12:07.641Z,1684.00
2019-04-11T05:13:07.891Z,1728.00
2019-04-11T05:14:07.980Z,1776.00
2019-04-11T05:15:08.170Z,1820.00
2019-04-11T05:16:16.848Z,1860.00
2019-04-11T05:19:40.486Z,2016.00
2019-04-11T05:20:40.732Z,2056.00
2019-04-11T05:21:41.437Z,2096.00
2019-04-11T05:22:41.572Z,2136.00
2019-04-11T05:23:41.728Z,2176.00
2019-04-11T05:24:41.091Z,2216.00
2019-04-11T05:25:42.456Z,2260.00
2019-04-11T05:26:41.801Z,2296.00
2019-04-11T05:27:41.896Z,2340.00
2019-04-11T05:28:41.716Z,2376.00
2019-04-11T05:29:41.882Z,2416.00
2019-04-11T05:30:42.054Z,2456.00
2019-04-11T05:31:42.780Z,2492.00
2019-04-11T05:32:42.387Z,2532.00
2019-04-11T05:33:43.452Z,2572.00
2019-04-11T05:34:43.519Z,2608.00
2019-04-11T05:35:43.774Z,2644.00
2019-04-11T05:36:43.067Z,2684.00
2019-04-11T05:37:43.235Z,2716.00
2019-04-11T05:38:44.262Z,2752.00
2019-04-11T05:39:44.881Z,2784.00
2019-04-11T05:40:43.743Z,2820.00
2019-04-11T05:41:46.635Z,2860.00
2019-04-11T05:42:45.123Z,2888.00
2019-04-11T05:43:45.191Z,2924.00
2019-04-11T05:44:45.158Z,2960.00
2019-04-11T05:45:45.502Z,2992.00
2019-04-11T05:46:52.398Z,3028.00
2019-04-11T05:47:46.133Z,3056.00
2019-04-11T05:48:45.299Z,3092.00
2019-04-11T05:49:46.532Z,3128.00
2019-04-11T05:50:48.386Z,3164.00
2019-04-11T05:51:47.535Z,3204.00
2019-04-11T05:52:45.759Z,3248.00
2019-04-11T05:53:48.591Z,3296.00
2019-04-11T05:54:48.942Z,3340.00
2019-04-11T05:55:47.509Z,3388.00
2019-04-11T05:56:52.046Z,3440.00
2019-04-11T05:57:46.873Z,3500.00
2019-04-11T05:58:47.442Z,3560.00
2019-04-11T05:59:49.922Z,3624.00
2019-04-11T06:00:47.136Z,3688.00
2019-04-11T06:01:47.280Z,3752.00
2019-04-11T06:02:47.449Z,3816.00
2019-04-11T06:03:49.274Z,3864.00
2019-04-11T06:04:51.959Z,3908.00
2019-04-11T06:05:47.976Z,3952.00
2019-04-11T06:06:48.122Z,3988.00
2019-04-11T06:07:50.654Z,4028.00
2019-04-11T06:08:48.458Z,4072.00
2019-04-11T06:09:48.634Z,4108.00
2019-04-11T06:10:48.795Z,4148.00
2019-04-11T06:11:52.388Z,4188.00
2019-04-11T06:12:49.132Z,4228.00
2019-04-11T06:13:49.301Z,4260.00
2019-04-11T06:14:49.468Z,4300.00
2019-04-11T06:15:49.636Z,4344.00
2019-04-11T06:16:53.875Z,4388.00
2019-04-11T06:17:50.295Z,4420.00
2019-04-11T06:18:50.175Z,4460.00
2019-04-11T06:19:50.324Z,4504.00
2019-04-11T06:20:51.501Z,4544.00
2019-04-11T06:21:50.655Z,4604.00
2019-04-11T06:22:50.842Z,4632.00
2019-04-11T06:23:51.784Z,4668.00
2019-04-11T06:24:52.191Z,4700.00
2019-04-11T06:25:51.397Z,4748.00
2019-04-11T06:26:51.501Z,4792.00
2019-04-11T06:27:51.676Z,4820.00
2019-04-11T06:28:54.308Z,4848.00
2019-04-11T06:29:52.991Z,4884.00
2019-04-11T06:30:52.751Z,4920.00
2019-04-11T06:31:52.346Z,4944.00
2019-04-11T06:32:52.511Z,4984.00
2019-04-11T06:33:53.141Z,5016.00
2019-04-11T06:34:52.849Z,5052.00
2019-04-11T06:35:53.018Z,5084.00
2019-04-11T06:36:53.186Z,5112.00
2019-04-11T06:37:54.224Z,5140.00
2019-04-11T06:38:54.656Z,5184.00
2019-04-11T06:39:54.557Z,5224.00
2019-04-11T06:40:54.520Z,5264.00
2019-04-11T06:41:54.910Z,5292.00
2019-04-11T06:42:54.201Z,5328.00
2019-04-11T06:43:54.371Z,5376.00
2019-04-11T06:44:54.538Z,5428.00
2019-04-11T06:45:54.706Z,5464.00
2019-04-11T06:46:57.733Z,5468.00
2019-04-11T06:47:55.046Z,5496.00
2019-04-11T06:48:56.107Z,5556.00
2019-04-11T06:49:55.385Z,5576.00
2019-04-11T06:50:55.615Z,5592.00
2019-04-11T06:51:56.689Z,5636.00
2019-04-11T06:52:56.045Z,5688.00
2019-04-11T06:53:56.682Z,5728.00
2019-04-11T06:54:56.249Z,5744.00
2019-04-11T06:55:57.305Z,5784.00
2019-04-11T06:56:57.299Z,5808.00
2019-04-11T06:57:56.739Z,5848.00
2019-04-11T06:58:56.912Z,5880.00
2019-04-11T06:59:57.081Z,5920.00
2019-04-11T07:00:57.864Z,5940.00
2019-04-11T07:02:08.108Z,5968.00
2019-04-11T07:02:57.592Z,6004.00
2019-04-11T07:03:57.763Z,6036.00
2019-04-11T07:04:58.169Z,6064.00
2019-04-11T07:05:59.167Z,6112.00
2019-04-11T07:06:58.272Z,6140.00
2019-04-11T07:07:58.471Z,6148.00
2019-04-11T07:08:58.950Z,6188.00
2019-04-11T07:09:59.759Z,6240.00
2019-04-11T07:10:58.973Z,6288.00
2019-04-11T07:11:59.308Z,6312.00
2019-04-11T07:13:00.580Z,6328.00
2019-04-11T07:13:59.712Z,6340.00
2019-04-11T07:15:00.152Z,6392.00
2019-04-11T07:16:00.471Z,6416.00
2019-04-11T07:17:04.772Z,6460.00
2019-04-11T07:18:01.024Z,6476.00
2019-04-11T07:19:00.643Z,6484.00
2019-04-11T07:20:00.481Z,6548.00
2019-04-11T07:21:00.736Z,6576.00
2019-04-11T07:22:00.828Z,6608.00
2019-04-11T07:23:01.572Z,6624.00
2019-04-11T07:24:01.161Z,6668.00
2019-04-11T07:25:01.955Z,6692.00
2019-04-11T07:26:02.539Z,6760.00
2019-04-11T07:27:01.669Z,6820.00
2019-04-11T07:28:01.839Z,6852.00
2019-04-11T07:29:02.007Z,6884.00
2019-04-11T07:30:03.156Z,6920.00
2019-04-11T07:31:02.461Z,6952.00
2019-04-11T07:32:02.633Z,6992.00
2019-04-11T07:33:03.902Z,7044.00
2019-04-11T07:34:02.880Z,7088.00
2019-04-11T07:35:04.672Z,7124.00
2019-04-11T07:36:03.885Z,7156.00
2019-04-11T07:37:04.540Z,7204.00
2019-04-11T07:38:03.559Z,7284.00
2019-04-11T07:39:03.729Z,7404.00
2019-04-11T07:40:05.706Z,7512.00
2019-04-11T07:41:04.242Z,7568.00
2019-04-11T07:42:04.734Z,7616.00
2019-04-11T07:43:08.781Z,7696.00
2019-04-11T07:44:04.574Z,7748.00
2019-04-11T07:45:04.742Z,7812.00
2019-04-11T07:46:04.920Z,7904.00
2019-04-11T07:47:14.574Z,7960.00
2019-04-11T07:48:07.100Z,8048.00
2019-04-11T07:49:05.936Z,8084.00
2019-04-11T07:50:05.862Z,8176.00
2019-04-11T07:51:06.499Z,8284.00
2019-04-11T07:52:06.762Z,8356.00
2019-04-11T07:53:06.114Z,8420.00
2019-04-11T07:54:06.286Z,8496.00
2019-04-11T07:55:06.773Z,8608.00
2019-04-11T07:56:07.702Z,8724.00
2019-04-11T07:57:06.792Z,8776.00
2019-04-11T07:58:06.961Z,8916.00
2019-04-11T07:59:07.366Z,9052.00
2019-04-11T08:00:08.159Z,9156.00
2019-04-11T08:01:08.302Z,9224.00
2019-04-11T08:02:08.691Z,9400.00
2019-04-11T08:03:07.815Z,9596.00
2019-04-11T08:04:07.985Z,9636.00
2019-04-11T08:05:08.798Z,9772.00
2019-04-11T08:06:08.326Z,9880.00
2019-04-11T08:07:08.763Z,9996.00
2019-04-11T08:08:09.478Z,10120.00
2019-04-11T08:09:09.641Z,10328.00
2019-04-11T08:10:10.085Z,10512.00
2019-04-11T08:11:09.513Z,10716.00
2019-04-11T08:12:09.349Z,10980.00
2019-04-11T08:13:10.186Z,10980.00
2019-04-11T08:14:10.474Z,11056.00
2019-04-11T08:15:10.032Z,11216.00
2019-04-11T08:16:10.575Z,11452.00
2019-04-11T08:17:11.436Z,11908.00
2019-04-11T08:18:10.458Z,11900.00
2019-04-11T08:19:10.553Z,11524.00
2019-04-11T08:20:10.973Z,11192.00
2019-04-11T08:21:11.960Z,11156.00
2019-04-11T08:22:11.068Z,11828.00
2019-04-11T08:23:11.708Z,12440.00
2019-04-11T08:24:12.046Z,13016.00
2019-04-11T08:25:11.585Z,13308.00
2019-04-11T08:26:11.760Z,13680.00
2019-04-11T08:27:11.928Z,14296.00
2019-04-11T08:28:13.855Z,14848.00
2019-04-11T08:29:15.082Z,15840.00
2019-04-11T08:30:12.795Z,16480.00
2019-04-11T08:31:13.256Z,16352.00
2019-04-11T08:32:13.688Z,15776.00
2019-04-11T08:33:14.070Z,16192.00
2019-04-11T08:34:13.321Z,16832.00
2019-04-11T08:35:13.302Z,17440.00
2019-04-11T08:36:13.749Z,18080.00
2019-04-11T08:37:13.689Z,17856.00
2019-04-11T08:38:14.000Z,18528.00
2019-04-11T08:39:15.594Z,19168.00
2019-04-11T08:40:14.159Z,19296.00
2019-04-11T08:41:15.482Z,19200.00
2019-04-11T08:42:14.985Z,20768.00
2019-04-11T08:43:15.063Z,20064.00
2019-04-11T08:44:15.369Z,19904.00
2019-04-11T08:45:15.022Z,20864.00
2019-04-11T08:46:15.192Z,20928.00
2019-04-11T08:47:16.251Z,20768.00
2019-04-11T08:48:15.540Z,21344.00
2019-04-11T08:49:15.705Z,22016.00
2019-04-11T08:50:16.409Z,22176.00
2019-04-11T08:51:16.977Z,22848.00
2019-04-11T08:52:16.230Z,24096.00
2019-04-11T08:53:16.396Z,25184.00
2019-04-11T08:54:17.458Z,25792.00
2019-04-11T08:55:17.260Z,26144.00
2019-04-11T08:56:16.916Z,26592.00
2019-04-11T08:57:17.892Z,26944.00
2019-04-11T08:58:17.273Z,26592.00
2019-04-11T08:59:18.633Z,26848.00
2019-04-11T09:00:17.806Z,27360.00
2019-04-11T09:01:18.049Z,28000.00
2019-04-11T09:02:18.549Z,28224.00
2019-04-11T09:03:18.125Z,28032.00
2019-04-11T09:04:18.523Z,28896.00
2019-04-11T09:05:20.344Z,28608.00
2019-04-11T09:06:18.880Z,28160.00
2019-04-11T09:07:19.192Z,29504.00
2019-04-11T09:08:18.990Z,31008.00
2019-04-11T09:09:19.169Z,31616.00
2019-04-11T09:10:19.982Z,33088.00
2019-04-11T09:11:20.473Z,32416.00
2019-04-11T09:12:20.556Z,32320.00
2019-04-11T09:13:19.866Z,32896.00
2019-04-11T09:14:20.042Z,33824.00
2019-04-11T09:15:21.101Z,33504.00
2019-04-11T09:16:21.505Z,33568.00
2019-04-11T09:17:21.497Z,35168.00
2019-04-11T09:18:21.819Z,35840.00
2019-04-11T09:19:21.041Z,36256.00
2019-04-11T09:20:21.402Z,37312.00
2019-04-11T09:21:22.282Z,37696.00
2019-04-11T09:22:22.445Z,37696.00
2019-04-11T09:23:21.779Z,38976.00
2019-04-11T09:24:22.075Z,39808.00
2019-04-11T09:25:23.186Z,40448.00
2019-04-11T09:26:22.143Z,35520.00
2019-04-11T09:27:22.641Z,46304.00
2019-04-11T09:28:22.508Z,23648.00
2019-04-11T09:29:22.665Z,35936.00
2019-04-11T09:30:23.095Z,34304.00
2019-04-11T09:31:23.022Z,49376.00
2019-04-11T09:32:25.063Z,48672.00
2019-04-11T09:33:24.597Z,18944.00
2019-04-11T09:34:23.869Z,17664.00
2019-04-11T09:35:24.111Z,16740.00
2019-04-11T09:36:23.987Z,16536.00
2019-04-11T09:37:25.269Z,16016.00
2019-04-11T09:38:24.379Z,15212.00
2019-04-11T09:39:24.424Z,15312.00
2019-04-11T09:40:26.050Z,23136.00
2019-04-11T09:41:24.833Z,16000.00
2019-04-11T09:42:26.118Z,15896.00
2019-04-11T09:43:26.249Z,15376.00
2019-04-11T09:44:25.291Z,14352.00
2019-04-11T09:45:25.728Z,14368.00
2019-04-11T09:46:26.229Z,15416.00
2019-04-11T09:47:26.301Z,17600.00
2019-04-11T09:48:26.315Z,15948.00
2019-04-11T09:49:27.085Z,17056.00
2019-04-11T09:50:26.644Z,18080.00
2019-04-11T09:51:29.199Z,18688.00
2019-04-11T09:52:26.990Z,19104.00
2019-04-11T09:53:28.175Z,17036.00
2019-04-11T09:54:28.181Z,17008.00
2019-04-11T09:55:27.209Z,30720.00
2019-04-11T09:56:27.378Z,18528.00
2019-04-11T09:57:28.843Z,24928.00
2019-04-11T09:58:27.728Z,57760.00
2019-04-11T09:59:29.048Z,50912.00
2019-04-11T10:00:28.876Z,56064.00
2019-04-11T10:01:28.801Z,42336.00
2019-04-11T10:02:28.417Z,57632.00
2019-04-11T10:03:28.619Z,57024.00
2019-04-11T10:04:29.761Z,59680.00
2019-04-11T10:05:30.008Z,60896.00
2019-04-11T10:06:30.150Z,60384.00
2019-04-11T10:07:30.126Z,59136.00
2019-04-11T10:08:29.461Z,60160.00
2019-04-11T10:09:30.332Z,62912.00
2019-04-11T10:10:29.811Z,62752.00
2019-04-11T10:11:30.376Z,59680.00
2019-04-11T10:12:30.163Z,59808.00
2019-04-11T10:13:31.024Z,61952.00
2019-04-11T10:14:31.516Z,62784.00
2019-04-11T10:15:31.517Z,64256.00
2019-04-11T10:16:31.804Z,63616.00
2019-04-11T10:17:31.822Z,61408.00
2019-04-11T10:18:37.114Z,61184.00
2019-04-11T10:19:31.723Z,62752.00
2019-04-11T10:20:32.819Z,63168.00
2019-04-11T10:21:32.917Z,62016.00
2019-04-11T10:22:32.136Z,65056.00
2019-04-11T10:23:32.668Z,65184.00
2019-04-11T10:24:32.634Z,64864.00
2019-04-11T10:25:32.467Z,64736.00
2019-04-11T10:26:32.629Z,64960.00
2019-04-11T10:27:33.038Z,62624.00
2019-04-11T10:28:33.434Z,63072.00
2019-04-11T10:29:34.518Z,65088.00
2019-04-11T10:30:33.572Z,60128.00
2019-04-11T10:31:34.623Z,67328.00
2019-04-11T10:32:33.689Z,71648.00
2019-04-11T10:33:35.075Z,71360.00
2019-04-11T10:34:34.045Z,70272.00
2019-04-11T10:35:34.550Z,69632.00
2019-04-11T10:36:34.954Z,71104.00
2019-04-11T10:37:34.574Z,71264.00
2019-04-11T10:38:34.750Z,68384.00
2019-04-11T10:39:35.548Z,66720.00
2019-04-11T10:40:36.386Z,66848.00
2019-04-11T10:41:35.283Z,69536.00
2019-04-11T10:42:35.459Z,70784.00
2019-04-11T10:43:36.277Z,70752.00
2019-04-11T10:44:35.978Z,69472.00
2019-04-11T10:45:36.434Z,70336.00
2019-04-11T10:46:36.176Z,71264.00
2019-04-11T10:47:36.741Z,73152.00
2019-04-11T10:48:39.818Z,73312.00
2019-04-11T10:49:36.708Z,73824.00
2019-04-11T10:50:37.026Z,73376.00
2019-04-11T10:51:37.949Z,70336.00
2019-04-11T10:52:38.288Z,68704.00
2019-04-11T10:53:37.440Z,76256.00
2019-04-11T10:54:38.757Z,78432.00
2019-04-11T10:55:37.900Z,74400.00
2019-04-11T10:56:39.145Z,68960.00
2019-04-11T10:57:38.315Z,68224.00
2019-04-11T10:58:38.310Z,69792.00
2019-04-11T10:59:38.618Z,67712.00
2019-04-11T11:00:39.727Z,27552.00
2019-04-11T11:01:39.894Z,24096.00
2019-04-11T11:02:39.732Z,34880.00
2019-04-11T11:03:39.198Z,80128.00
2019-04-11T11:04:39.377Z,80448.00
2019-04-11T11:05:40.123Z,79648.00
2019-04-11T11:06:39.924Z,74912.00
2019-04-11T11:07:40.545Z,72000.00
2019-04-11T11:08:40.091Z,72064.00
2019-04-11T11:09:40.311Z,73120.00
2019-04-11T11:10:40.454Z,75680.00
2019-04-11T11:11:40.859Z,78784.00
2019-04-11T11:12:41.432Z,78592.00
2019-04-11T11:13:40.979Z,77312.00
2019-04-11T11:14:41.154Z,77568.00
2019-04-11T11:15:41.916Z,77696.00
2019-04-11T11:16:44.991Z,76576.00
2019-04-11T11:18:00.991Z,75872.00
2019-04-11T11:19:15.023Z,79392.00
2019-04-11T11:19:51.441Z,82336.00
2019-04-11T11:20:50.214Z,79680.00
2019-04-11T11:21:42.995Z,77408.00
2019-04-11T11:22:43.413Z,76192.00
2019-04-11T11:23:42.909Z,74400.00
2019-04-11T11:24:43.994Z,75904.00
2019-04-11T11:25:48.412Z,77056.00
2019-04-11T11:26:43.362Z,76448.00
2019-04-11T11:27:43.731Z,78560.00
2019-04-11T11:28:43.649Z,81312.00
2019-04-11T11:29:45.213Z,81760.00
2019-04-11T11:30:44.771Z,76320.00
2019-04-11T11:31:44.865Z,75744.00
2019-04-11T11:32:45.294Z,77280.00
2019-04-11T11:33:44.852Z,76128.00
2019-04-11T11:34:48.874Z,70688.00
2019-04-11T11:35:45.814Z,72960.00
2019-04-11T11:36:45.746Z,83584.00
2019-04-11T11:37:45.297Z,82848.00
2019-04-11T11:38:46.062Z,76672.00
2019-04-11T11:39:46.900Z,73568.00
2019-04-11T11:40:45.799Z,73952.00
2019-04-11T11:41:46.883Z,75360.00
2019-04-11T11:42:46.222Z,79072.00
2019-04-11T11:43:48.253Z,84032.00
2019-04-11T11:44:46.704Z,83744.00
2019-04-11T11:45:49.166Z,83456.00
2019-04-11T11:46:46.871Z,83488.00
2019-04-11T11:47:47.050Z,65792.00
2019-04-11T11:48:49.958Z,63680.00
2019-04-11T11:49:55.404Z,68512.00
2019-04-11T11:50:50.571Z,86144.00
2019-04-11T11:51:47.834Z,82848.00
2019-04-11T11:52:48.948Z,86240.00
2019-04-11T11:53:49.053Z,84064.00
2019-04-11T11:54:48.307Z,88864.00
2019-04-11T11:55:49.472Z,93728.00
2019-04-11T11:56:48.973Z,73632.00
2019-04-11T11:57:48.853Z,88576.00
2019-04-11T11:58:56.168Z,76992.00
2019-04-11T11:59:50.382Z,87584.00
2019-04-11T12:00:51.994Z,40608.00
2019-04-11T12:01:51.121Z,97024.00
2019-04-11T12:02:52.080Z,94688.00
2019-04-11T12:03:50.738Z,94400.00
2019-04-11T12:04:50.114Z,93952.00
2019-04-11T12:05:52.469Z,95552.00
2019-04-11T12:06:56.004Z,88192.00
2019-04-11T12:07:51.470Z,32480.00
2019-04-11T12:08:51.464Z,97664.00
2019-04-11T12:09:51.020Z,95328.00
2019-04-11T12:10:51.479Z,96864.00
2019-04-11T12:11:52.951Z,102720.00
2019-04-11T12:12:51.928Z,38112.00
2019-04-11T12:13:51.734Z,56000.00
2019-04-11T12:14:51.917Z,34176.00
2019-04-11T12:15:53.165Z,89024.00
2019-04-11T12:16:59.602Z,93728.00
2019-04-11T12:17:52.458Z,94880.00
2019-04-11T12:18:54.329Z,95072.00
2019-04-11T12:19:57.485Z,95936.00
2019-04-11T12:20:54.741Z,92896.00
2019-04-11T12:21:53.734Z,87232.00
2019-04-11T12:22:53.739Z,81920.00
2019-04-11T12:24:00.812Z,84544.00
2019-04-11T12:24:53.715Z,89440.00
2019-04-11T12:25:53.898Z,47264.00
2019-04-11T12:26:54.076Z,95456.00
2019-04-11T12:27:54.259Z,97312.00
2019-04-11T12:28:54.439Z,96224.00
2019-04-11T12:29:54.623Z,94272.00
2019-04-11T12:30:57.883Z,89952.00
2019-04-11T12:31:55.717Z,90432.00
2019-04-11T12:32:55.172Z,93760.00
2019-04-11T12:33:55.344Z,95200.00
2019-04-11T12:34:55.749Z,92512.00
2019-04-11T12:35:57.956Z,70720.00
2019-04-11T12:36:56.414Z,79008.00
2019-04-11T12:37:56.070Z,35392.00
2019-04-11T12:38:56.249Z,85664.00
2019-04-11T12:39:56.472Z,40864.00
2019-04-11T12:40:56.608Z,88800.00
2019-04-11T12:41:56.789Z,76800.00
2019-04-11T12:42:56.971Z,92608.00
2019-04-11T12:43:57.152Z,93504.00
2019-04-11T12:44:59.514Z,97504.00
2019-04-11T12:45:57.510Z,96704.00
2019-04-11T12:46:57.687Z,95040.00
2019-04-11T12:47:57.875Z,91328.00
2019-04-11T12:48:58.052Z,88960.00
2019-04-11T12:49:58.230Z,89696.00
2019-04-11T12:50:58.412Z,90496.00
2019-04-11T12:51:58.591Z,92384.00
2019-04-11T12:52:58.774Z,92384.00
2019-04-11T12:53:58.955Z,92800.00
2019-04-11T12:54:59.139Z,92640.00
2019-04-11T12:55:59.317Z,94912.00
2019-04-11T12:56:59.502Z,96416.00
2019-04-11T12:57:59.678Z,98976.00
2019-04-11T12:58:59.860Z,71968.00
2019-04-11T13:00:00.042Z,38048.00
2019-04-11T13:01:00.221Z,63168.00
2019-04-11T13:02:00.405Z,64128.00
2019-04-11T13:03:00.589Z,95488.00
2019-04-11T13:04:00.766Z,91648.00
2019-04-11T13:05:00.948Z,97376.00
2019-04-11T13:06:01.128Z,98624.00
2019-04-11T13:07:01.317Z,95104.00
2019-04-11T13:08:01.489Z,91296.00
2019-04-11T13:09:01.676Z,88192.00
2019-04-11T13:10:01.854Z,93728.00
2019-04-11T13:11:02.040Z,95168.00
2019-04-11T13:12:02.213Z,90304.00
2019-04-11T13:13:02.395Z,85088.00
2019-04-11T13:14:02.575Z,83616.00
2019-04-11T13:15:02.755Z,84256.00
2019-04-11T13:16:11.858Z,90176.00
2019-04-11T13:17:03.120Z,93664.00
2019-04-11T13:18:03.297Z,32000.00
2019-04-11T13:19:03.499Z,67008.00
2019-04-11T13:20:04.786Z,59328.00
2019-04-11T13:21:03.845Z,92448.00
2019-04-11T13:22:04.022Z,95904.00
2019-04-11T13:23:04.210Z,97472.00
2019-04-11T13:24:04.391Z,34432.00
2019-04-11T13:25:04.575Z,35360.00
2019-04-11T13:26:04.755Z,53280.00
2019-04-11T13:27:04.930Z,32448.00
2019-04-11T13:28:05.131Z,77216.00
2019-04-11T13:29:05.290Z,89280.00
2019-04-11T13:30:05.468Z,86944.00
2019-04-11T13:31:05.652Z,87744.00
2019-04-11T13:32:05.832Z,88928.00
2019-04-11T13:33:06.010Z,87232.00
2019-04-11T13:34:06.193Z,87584.00
2019-04-11T13:35:06.370Z,89408.00
2019-04-11T13:36:06.551Z,92736.00
2019-04-11T13:37:06.734Z,92736.00
2019-04-11T13:38:06.911Z,57024.00
2019-04-11T13:39:07.090Z,84896.00
2019-04-11T13:40:07.345Z,33952.00
2019-04-11T13:41:07.517Z,42496.00
2019-04-11T13:42:07.694Z,62080.00
2019-04-11T13:43:07.874Z,92192.00
2019-04-11T13:44:09.820Z,94656.00
2019-04-11T13:45:10.070Z,92896.00
2019-04-11T13:46:08.419Z,87904.00
2019-04-11T13:47:08.598Z,88416.00
2019-04-11T13:48:08.777Z,87040.00
2019-04-11T13:49:08.963Z,86784.00
2019-04-11T13:50:16.386Z,85408.00
2019-04-11T13:51:09.321Z,85120.00
2019-04-11T13:52:09.502Z,85664.00
2019-04-11T13:53:09.682Z,26592.00
2019-04-11T13:54:09.863Z,84320.00
2019-04-11T13:55:10.044Z,64224.00
2019-04-11T13:56:10.223Z,85824.00
2019-04-11T13:57:10.406Z,83360.00
2019-04-11T13:58:10.592Z,85024.00
2019-04-11T13:59:10.768Z,87584.00
2019-04-11T14:00:10.951Z,87296.00
2019-04-11T14:01:11.131Z,83072.00
2019-04-11T14:02:11.310Z,81024.00
2019-04-11T14:03:11.493Z,81568.00
2019-04-11T14:04:11.670Z,80480.00
2019-04-11T14:05:11.849Z,80832.00
2019-04-11T14:06:12.029Z,83008.00
2019-04-11T14:07:12.214Z,84640.00
2019-04-11T14:08:12.394Z,81376.00
2019-04-11T14:09:12.571Z,80000.00
2019-04-11T14:10:12.753Z,79904.00
2019-04-11T14:11:12.941Z,83776.00
2019-04-11T14:12:13.121Z,82688.00
2019-04-11T14:13:13.304Z,80288.00
2019-04-11T14:14:13.483Z,78976.00
2019-04-11T14:15:13.667Z,71936.00
2019-04-11T14:16:13.846Z,80192.00
2019-04-11T14:17:14.027Z,76672.00
2019-04-11T14:18:14.205Z,82208.00
2019-04-11T14:19:14.387Z,79616.00
2019-04-11T14:20:14.573Z,79296.00
2019-04-11T14:21:14.994Z,81472.00
2019-04-11T14:22:14.930Z,80704.00
2019-04-11T14:23:15.290Z,79968.00
2019-04-11T14:24:15.289Z,81600.00
2019-04-11T14:25:15.469Z,83552.00
2019-04-11T14:26:15.660Z,87264.00
2019-04-11T14:27:15.833Z,79840.00
2019-04-11T14:28:16.013Z,81216.00
2019-04-11T14:29:16.196Z,70752.00
2019-04-11T14:30:18.558Z,32960.00
2019-04-11T14:31:16.555Z,23968.00
2019-04-11T14:32:16.735Z,22880.00
2019-04-11T14:33:16.916Z,41664.00
2019-04-11T14:34:17.095Z,36576.00
2019-04-11T14:35:17.277Z,24896.00
2019-04-11T14:36:17.456Z,38240.00
2019-04-11T14:37:17.634Z,70528.00
2019-04-11T14:38:17.813Z,77376.00
2019-04-11T14:39:17.995Z,83808.00
2019-04-11T14:40:18.175Z,85248.00
2019-04-11T14:41:18.357Z,79520.00
2019-04-11T14:42:18.688Z,76320.00
2019-04-11T14:43:18.714Z,82848.00
2019-04-11T14:44:18.892Z,40800.00
2019-04-11T14:45:19.072Z,27392.00
2019-04-11T14:46:19.252Z,80832.00
2019-04-11T14:47:19.431Z,71424.00
2019-04-11T14:48:19.609Z,28576.00
2019-04-11T14:49:19.790Z,64576.00
2019-04-11T14:50:19.968Z,22144.00
2019-04-11T14:51:20.146Z,68768.00
2019-04-11T14:52:20.326Z,72160.00
2019-04-11T14:53:20.505Z,64832.00
2019-04-11T14:54:20.689Z,48064.00
2019-04-11T14:55:20.864Z,74080.00
2019-04-11T14:56:22.195Z,17560.00
2019-04-11T14:57:23.291Z,72640.00
2019-04-11T14:58:23.537Z,69568.00
2019-04-11T14:59:23.980Z,70976.00
2019-04-11T15:00:21.893Z,75424.00
2019-04-11T15:01:23.697Z,72896.00
2019-04-11T15:02:22.114Z,67072.00
2019-04-11T15:03:22.292Z,69248.00
2019-04-11T15:04:22.468Z,74336.00
2019-04-11T15:05:22.648Z,74688.00
2019-04-11T15:06:22.826Z,72544.00
2019-04-11T15:07:23.006Z,72832.00
2019-04-11T15:08:23.181Z,72320.00
2019-04-11T15:09:23.361Z,69376.00
2019-04-11T15:10:23.543Z,69248.00
2019-04-11T15:11:23.720Z,70592.00
2019-04-11T15:12:23.901Z,68896.00
2019-04-11T15:13:24.828Z,69696.00
2019-04-11T15:14:24.242Z,60000.00
2019-04-11T15:15:24.426Z,63904.00
2019-04-11T15:16:24.601Z,34976.00
2019-04-11T15:17:26.417Z,17024.00
2019-04-11T15:18:27.038Z,16068.00
2019-04-11T15:19:25.136Z,15848.00
2019-04-11T15:20:25.318Z,15752.00
2019-04-11T15:21:25.493Z,15860.00
2019-04-11T15:22:25.669Z,17024.00
2019-04-11T15:23:25.853Z,34176.00
2019-04-11T15:24:26.022Z,46688.00
2019-04-11T15:25:26.201Z,58816.00
2019-04-11T15:26:26.375Z,55136.00
2019-04-11T15:27:26.555Z,49344.00
2019-04-11T15:28:26.734Z,46080.00
2019-04-11T15:29:26.912Z,46496.00
2019-04-11T15:30:27.107Z,48768.00
2019-04-11T15:31:38.507Z,50208.00
2019-04-11T15:32:27.448Z,52768.00
2019-04-11T15:33:27.624Z,28448.00
2019-04-11T15:34:27.806Z,56864.00
2019-04-11T15:35:27.981Z,51712.00
2019-04-11T15:36:28.592Z,23200.00
2019-04-11T15:37:28.657Z,13444.00
2019-04-11T15:38:28.513Z,12476.00
2019-04-11T15:39:28.690Z,12520.00
2019-04-11T15:40:28.865Z,12752.00
2019-04-11T15:41:29.044Z,13384.00
2019-04-11T15:42:29.221Z,50976.00
2019-04-11T15:43:29.396Z,52800.00
2019-04-11T15:44:29.575Z,14636.00
2019-04-11T15:45:29.757Z,25216.00
2019-04-11T15:46:29.932Z,14304.00
2019-04-11T15:47:30.110Z,13132.00
2019-04-11T15:48:30.291Z,12216.00
2019-04-11T15:49:31.544Z,12036.00
2019-04-11T15:50:31.105Z,10784.00
2019-04-11T15:51:30.819Z,9256.00
2019-04-11T15:52:30.994Z,9172.00
2019-04-11T15:53:31.173Z,9364.00
2019-04-11T15:54:31.348Z,9820.00
2019-04-11T15:55:31.525Z,12256.00
2019-04-11T15:56:31.701Z,37632.00
2019-04-11T15:57:31.874Z,13296.00
2019-04-11T15:58:32.048Z,12008.00
2019-04-11T15:59:32.227Z,11052.00